Tiempo atmosférico en la estación meteorológica de Riaño, León (1090 m.)



Fecha
DESCASC
Temp. máxima en grados centígrados (hora)
DESCASC
Temp. mínima en grados centígrados (hora)
DESCASC
Temp. media en grados centígrados
DESCASC
Racha de viento máxima en m/sg (hora)
DESCASC
Velocidad máxima media en intervalos de 10 minutos(hora)
DESCASC
Precipitaciones diarias en mm
DESCASC
Precipitaciones de 00:00 a 06:00 en mm
DESCASC
Precipitaciones de 06:00 a 12:00 en mm
DESCASC
Precipitaciones de 12:00 a 18:00 en mm
DESCASC
Precipitaciones de 18:00 a 24:00 en mm
DESCASC
05-04-2020 11.5 (16:40) 7.1 (05:40) 9.3 13.61 (03:20) 7.78 (03:20) 15.6 0 0.2 1.4 14
04-04-2020 16.3 (16:20) -2.6 (08:20) 6.8 12.78 (23:50) 7.5 (18:00) 0 0 0 0 0
03-04-2020 15.4 (15:50) -2.8 (07:30) 6.3 7.78 (00:40) 5.28 (16:00) 0 0 0 0 0
02-04-2020 9 (15:40) 3.3 (00:00) 6.1 10.83 (18:10) 8.33 (13:50) 0.4 0 0.2 0.2 0
01-04-2020 11.1 (16:40) 4.3 (00:00) 7.7 8.61 (01:40) 5.56 (01:40) 5.4 2.4 0.4 0 2.6
31-03-2020 8 (15:50) -1.5 (-00:0) 3.3 13.33 (19:50) 8.89 (13:20) 0 0 0 0 0
30-03-2020 3 (00:00) -1.3 (-00:0) 0.9 11.94 (04:30) 7.5 (13:10) 0.2 0 0 0.2 0
29-03-2020 12.8 (13:30) -1.2 (-00:0) 5.8 15 (17:00) 10.56 (16:50) 0 0 0 0 0
28-03-2020 16 (15:20) -4.3 (-00:0) 5.8 8.89 (17:20) 6.39 (17:10) 0 0 0 0 0
27-03-2020 11.2 (16:30) -3.3 (-00:0) 3.9 11.67 (11:50) 6.39 (11:50) 0 0 0 0 0
26-03-2020 7.8 (14:30) -0.3 (00:00) 3.8 13.06 (11:50) 9.44 (13:20) 0 0 0 0 0
25-03-2020 13.3 (14:50) 0.7 (00:00) 7 11.67 (18:30) 7.5 (15:10) 0 0 0 0 0
24-03-2020 17.6 (16:10) 2.3 (00:00) 10 10 (12:50) 6.11 (12:30) 0 0 0 0 0
23-03-2020 14.8 (16:10) -0.9 (-00:0) 7 7.78 (18:40) 5.28 (17:10) 0 0 0 0 0
22-03-2020 15.4 (13:00) 3.7 (07:30) 9.5 9.72 (16:50) 6.39 (16:10) 0 0 0 0 0
21-03-2020 15.7 (14:20) 4.9 (00:00) 10.3 9.72 (14:50) 6.39 (14:40) 0 0 0 0 0
20-03-2020 12.3 (15:30) 1.7 (00:00) 7 8.33 (23:10) 5.56 (23:10) 0.6 0 0 0 0.6
19-03-2020 18.5 (14:40) 1.8 (00:00) 10.1 9.17 (16:30) 6.11 (15:50) 0 0 0 0 0
18-03-2020 18.4 (16:40) 2.6 (00:00) 10.5 7.22 (16:10) 3.61 (15:40) 0 0 0 0 0
17-03-2020 14.3 (12:30) 1.6 (00:00) 8 13.06 (01:50) 8.61 (03:00) 0 0 0 0 0
16-03-2020 5 (15:40) 0.2 (00:00) 2.6 17.5 (15:10) 10.56 (15:50) 4.8 0 4.6 0.2 0
15-03-2020 15.4 (15:00) -2 (-00:0) 6.7 14.17 (16:50) 9.44 (17:30) 0 0 0 0 0
14-03-2020 17.4 (16:00) -2.3 (-00:0) 7.5 8.33 (16:50) 6.11 (16:50) 0 0 0 0 0
13-03-2020 11.4 (13:10) 2.1 (23:59) 6.7 11.67 (18:10) 8.61 (15:10) 0 0 0 0 0
12-03-2020 14.8 (13:00) 2.6 (00:00) 8.7 12.5 (15:10) 9.72 (14:40) 0 0 0 0 0
11-03-2020 20.7 (16:00) -1.3 (-00:0) 9.7 8.33 (15:10) 4.44 (15:20) 0 0 0 0 0
10-03-2020 19.7 (17:00) -0.6 (-00:0) 9.6 8.06 (15:10) 3.61 (17:10) 0 0 0 0 0

Gráficas

Temp. máximas Temp. mínimas Temp. medias Precipitaciones Rachas de viento máximas Velocidades máximas media en intervalos de 10 minutos

Datos horarios

Fecha y hora oficial Temperatura (ºC) Velocidad del viento (km/h) Dirección del viento Racha (km/h) Dirección de racha Precipitación (mm) Presión (hPa) Tendencia (hPa) Humedad (%)
2020-04-08 23:00:00 9 2 Oeste 5 Sudoeste 0 -- -- 82
2020-04-08 22:00:00 11.1 2 Nordeste 9 Sudoeste 0 -- -- 75
2020-04-08 21:00:00 13.8 4 Oeste 12 Oeste 0 -- -- 64
2020-04-08 20:00:00 15.3 2 Sudoeste 14 Sudoeste 0 -- -- 62
2020-04-08 19:00:00 16.4 10 Sur 22 Sur 0 -- -- 64
2020-04-08 18:00:00 18.3 10 Sudoeste 21 Oeste 0 -- -- 51
2020-04-08 17:00:00 17.6 10 Sudeste 21 Sur 0 -- -- 57
2020-04-08 16:00:00 17.1 8 Sudoeste 23 Sur 0 -- -- 56
2020-04-08 15:00:00 15 6 Este 16 Noroeste 0.2 -- -- 69
2020-04-08 14:00:00 15.9 12 Sur 20 Sur 0 -- -- 68
2020-04-08 13:00:00 10.8 0 Calma 11 Sudoeste 0 -- -- 91
2020-04-08 12:00:00 9.2 2 Sudeste 5 Norte 0 -- -- 90
2020-04-08 11:00:00 9.5 3 Nordeste 5 Norte 0 -- -- 91
2020-04-08 10:00:00 6.5 0 Calma 5 Este 0 -- -- 98
2020-04-08 09:00:00 6.1 0 Calma 3 Sudoeste 0 -- -- 99
2020-04-08 08:00:00 5.7 0 Calma 5 Noroeste 0 -- -- 99
2020-04-08 07:00:00 6.2 0 Calma 5 Oeste 0 -- -- 97
2020-04-08 06:00:00 6.4 0 Calma 7 Sudeste 0 -- -- 97
2020-04-08 05:00:00 6.3 0 Calma 5 Este 0 -- -- 96
2020-04-08 04:00:00 6.3 0 Calma 4 Sudeste 0 -- -- 98
2020-04-08 03:00:00 5.8 3 Oeste 4 Sur 0 -- -- 98
2020-04-08 02:00:00 6.6 0 Calma 4 Norte 0 -- -- 97
2020-04-08 01:00:00 6.7 0 Calma 4 Noroeste 0 -- -- 98
2020-04-08 00:00:00 6.8 2 Sudeste 7 Sudoeste 0 -- -- 97
2020-04-07 23:00:00 7.5 0 Calma 6 Sur 0 -- -- 94
2020-04-07 22:00:00 8.8 0 Calma 6 Noroeste 0 -- -- 92
2020-04-07 21:00:00 10.1 3 Noroeste 5 Noroeste 0 -- -- 89
2020-04-07 20:00:00 12.2 5 Noroeste 9 Norte 0 -- -- 84
2020-04-07 19:00:00 12.7 2 Noroeste 8 Sudoeste 0 -- -- 80
2020-04-07 18:00:00 13.6 5 Sudoeste 12 Sudoeste 0 -- -- 75
2020-04-07 17:00:00 13.1 3 Nordeste 20 Sudoeste 0.2 -- -- 81
2020-04-07 16:00:00 13.2 5 Oeste 18 Sudoeste 0 -- -- 71
2020-04-07 15:00:00 12.7 10 Sudoeste 18 Sudoeste 0 -- -- 72
2020-04-07 14:00:00 12.8 3 Norte 15 Sudeste 0 -- -- 74
2020-04-07 13:00:00 11.4 7 Este 10 Este 0 -- -- 82
2020-04-07 12:00:00 10.9 3 Este 9 Sur 0 -- -- 86
2020-04-07 11:00:00 9.6 0 Calma 4 Nordeste 0 -- -- 95
2020-04-07 10:00:00 8.7 2 Nordeste 4 Nordeste 0 -- -- 95
2020-04-07 09:00:00 7.2 0 Calma 5 Norte 0 -- -- 99
2020-04-07 08:00:00 6.7 2 Noroeste 3 Este 0 -- -- 98
2020-04-07 07:00:00 6.9 0 Calma 4 Noroeste 0 -- -- 98
2020-04-07 06:00:00 6.8 2 Norte 6 Este 0 -- -- 99
2020-04-07 05:00:00 6.7 0 Calma 5 Sur 0 -- -- 99
2020-04-07 04:00:00 6.5 0 Calma 5 Noroeste 0 -- -- 99
2020-04-07 03:00:00 6.5 0 Calma 3 Norte 0.2 -- -- 99
2020-04-07 02:00:00 6.3 0 Calma 3 Sudoeste 0 -- -- 98
2020-04-07 01:00:00 6.6 0 Calma 2 Sudoeste 0 -- -- 97
2020-04-07 00:00:00 7.1 0 Calma 4 Norte 0 -- -- 97
2020-04-06 23:00:00 7.5 3 Noroeste 4 Noroeste 0 -- -- 97
2020-04-06 22:00:00 7.8 0 Calma 3 Oeste 0 -- -- 96
2020-04-06 21:00:00 8.3 0 Calma 3 Noroeste 0 -- -- 94
2020-04-06 20:00:00 9.3 0 Calma 3 Norte 0.2 -- -- 93
2020-04-06 19:00:00 9.1 2 Norte 16 Sudeste 2.2 -- -- 96
2020-04-06 18:00:00 9.6 4 Sudeste 12 Este 0 -- -- 91
2020-04-06 17:00:00 9.9 2 Noroeste 13 Norte 0.2 -- -- 92
2020-04-06 16:00:00 9.2 5 Nordeste 14 Norte 0.4 -- -- 97
2020-04-06 15:00:00 9 3 Norte 13 Norte 1.4 -- -- 97
2020-04-06 14:00:00 8.7 0 Calma 16 Norte 1 -- -- 95
2020-04-06 13:00:00 7.3 8 Norte 32 Norte 1.2 -- -- 96
2020-04-06 12:00:00 6.9 19 Norte 33 Norte 3 -- -- 98
2020-04-06 11:00:00 8 14 Norte 24 Norte 0.6 -- -- 96
2020-04-06 10:00:00 8.4 0 Calma 4 Sur 2 -- -- 98
2020-04-06 09:00:00 8 2 Sudoeste 4 Sur 1 -- -- 98
2020-04-06 08:00:00 7.8 2 Noroeste 4 Noroeste 0.8 -- -- 98
2020-04-06 07:00:00 7.9 2 Norte 5 Noroeste 0.2 -- -- 97
2020-04-06 06:00:00 8.1 3 Noroeste 5 Noroeste 0.2 -- -- 97
2020-04-06 05:00:00 8.3 2 Este 17 Sudeste 0 -- -- 96
2020-04-06 04:00:00 8.3 8 Sudeste 21 Sudeste 0 -- -- 97
2020-04-06 03:00:00 8 8 Sudeste 19 Sudeste 0 -- -- 98
2020-04-06 02:00:00 7.8 0 Calma 3 Sur 0.2 -- -- 97
2020-04-06 01:00:00 7.9 2 Sudoeste 5 Noroeste 0.2 -- -- 96
2020-04-06 00:00:00 8 0 Calma 8 Este 0 -- -- 95
2020-04-05 23:00:00 8.2 2 Sur 21 Sudoeste 0.2 -- -- 93
2020-04-05 22:00:00 9 7 Sudoeste 23 Sudoeste 2.2 -- -- 90
2020-04-05 21:00:00 9 5 Sur 33 Sur 3.8 -- -- 92
2020-04-05 20:00:00 9.4 9 Sur 39 Sur 3.6 -- -- 89
2020-04-05 19:00:00 9.9 17 Sudoeste 34 Sudoeste 4.2 -- -- 85
2020-04-05 18:00:00 10.3 16 Sur 31 Sudeste 0.8 -- -- 87
2020-04-05 17:00:00 10.9 12 Sur 29 Sur 0.4 -- -- 84
2020-04-05 16:00:00 10.7 10 Sur 28 Sur 0.2 -- -- 83
2020-04-05 15:00:00 10.3 6 Sudeste 33 Sur 0 -- -- 81
2020-04-05 14:00:00 9.6 21 Sur 41 Sur 0 -- -- 82
2020-04-05 13:00:00 9.3 19 Sudeste 33 Sudeste 0 -- -- 88
2020-04-05 12:00:00 8.1 18 Sudeste 26 Sudeste 0.2 -- -- 89
2020-04-05 11:00:00 7.8 14 Sudeste 25 Sudeste 0 -- -- 87
2020-04-05 10:00:00 8 14 Sudeste 29 Sudeste 0 -- -- 81
2020-04-05 09:00:00 8.3 11 Sudeste 26 Sur 0 -- -- 79
2020-04-05 08:00:00 7.7 15 Sudeste 24 Sur 0 -- -- 80
2020-04-05 07:00:00 7.2 11 Sudeste 21 Sudeste 0 -- -- 80
2020-04-05 06:00:00 7.3 17 Sudeste 31 Sudeste 0 -- -- 78
2020-04-05 05:00:00 7.5 20 Sudeste 39 Sudeste 0 -- -- 76
2020-04-05 04:00:00 8.7 21 Sur 49 Sur 0 -- -- 71
2020-04-05 03:00:00 8.8 22 Sur 35 Sur 0 -- -- 69
2020-04-05 02:00:00 9.7 12 Sudoeste 48 Sur 0 -- -- 63
2020-04-05 01:00:00 8.8 20 Sur 33 Sudeste 0 -- -- 67
2020-04-05 00:00:00 9.5 25 Sudeste 46 Sur 0 -- -- 62
2020-04-04 23:00:00 10.2 19 Sur 41 Sur 0 -- -- 58
2020-04-04 22:00:00 11.2 14 Sur 39 Sur 0 -- -- 54
2020-04-04 21:00:00 11.5 11 Sur 25 Sur 0 -- -- 52
2020-04-04 20:00:00 12.4 11 Sur 38 Sudeste 0 -- -- 48
2020-04-04 19:00:00 13.2 20 Sur 41 Sudeste 0 -- -- 47
2020-04-04 18:00:00 15.2 27 Sur 45 Oeste 0 -- -- 37
2020-04-04 17:00:00 15.8 20 Sur 38 Sudeste 0 -- -- 36
2020-04-04 16:00:00 16.1 21 Sudeste 39 Sudeste 0 -- -- 38
2020-04-04 15:00:00 14.9 17 Sudoeste 37 Sur 0 -- -- 41
2020-04-04 14:00:00 14.1 18 Sur 39 Sur 0 -- -- 46
2020-04-04 13:00:00 13.7 18 Sur 34 Sur 0 -- -- 50
2020-04-04 12:00:00 10.6 9 Sudeste 22 Este 0 -- -- 62
2020-04-04 11:00:00 5.6 2 Este 5 Nordeste 0 -- -- 71
2020-04-04 10:00:00 2.3 3 Este 5 Nordeste 0 -- -- 85
2020-04-04 09:00:00 -1.1 0 Calma 4 Sur 0 -- -- 96
2020-04-04 08:00:00 -2.4 0 Calma 4 Sur 0 -- -- 95
2020-04-04 07:00:00 -2 0 Calma 4 Sur 0 -- -- 96
2020-04-04 06:00:00 -1.7 0 Calma 4 Sudoeste 0 -- -- 94
2020-04-04 05:00:00 -1.4 0 Calma 3 Noroeste 0 -- -- 95
2020-04-04 04:00:00 -0.8 0 Calma 2 Sur 0 -- -- 95
2020-04-04 03:00:00 0 0 Calma 3 Noroeste 0 -- -- 92
2020-04-04 02:00:00 0.9 0 Calma 3 Sur 0 -- -- 88
2020-04-04 01:00:00 2 0 Calma 3 Sudeste 0 -- -- 86
2020-04-04 00:00:00 3.3 0 Calma 6 Sur 0 -- -- 82
2020-04-03 23:00:00 4.9 0 Calma 8 Sudoeste 0 -- -- 74
2020-04-03 22:00:00 7.4 4 Sur 14 Oeste 0 -- -- 63
2020-04-03 21:00:00 9.3 4 Oeste 14 Sudeste 0 -- -- 57
2020-04-03 20:00:00 11.2 11 Sur 23 Sur 0 -- -- 56
2020-04-03 19:00:00 14.1 12 Sudoeste 23 Sudoeste 0 -- -- 49
2020-04-03 18:00:00 15.1 12 Sudeste 24 Sudeste 0 -- -- 43
2020-04-03 17:00:00 15.3 16 Sudeste 27 Sudeste 0 -- -- 41
2020-04-03 16:00:00 15.2 19 Sudeste 27 Sudeste 0 -- -- 39
2020-04-03 15:00:00 14.5 5 Nordeste 9 Nordeste 0 -- -- 57
2020-04-03 14:00:00 13 5 Nordeste 8 Norte 0 -- -- 61
2020-04-03 13:00:00 10.1 5 Nordeste 8 Norte 0 -- -- 65
2020-04-03 12:00:00 6.3 5 Nordeste 6 Nordeste 0 -- -- 77
2020-04-03 11:00:00 2.3 2 Este 5 Sudeste 0 -- -- 88
2020-04-03 10:00:00 -0.2 2 Sudeste 6 Sudeste 0 -- -- 95
2020-04-03 09:00:00 -1.5 2 Sur 4 Sur 0 -- -- 97
2020-04-03 08:00:00 -2.6 0 Calma 4 Este 0 -- -- 96
2020-04-03 07:00:00 -2.5 0 Calma 4 Sudoeste 0 -- -- 95
2020-04-03 06:00:00 -1.8 0 Calma 5 Sudeste 0 -- -- 93
2020-04-03 05:00:00 -1 2 Sudeste 9 Sudeste 0 -- -- 93
2020-04-03 04:00:00 -0.2 3 Este 13 Este 0 -- -- 91
2020-04-03 03:00:00 0.9 0 Calma 19 Nordeste 0 -- -- 86
2020-04-03 02:00:00 2.6 8 Norte 26 Norte 0 -- -- 81
2020-04-03 01:00:00 2.8 8 Norte 28 Norte 0 -- -- 81
2020-04-03 00:00:00 3.3 13 Norte 26 Norte 0 -- -- 85
2020-04-02 23:00:00 4 16 Norte 30 Norte 0 -- -- 87
2020-04-02 22:00:00 4.6 19 Norte 26 Norte 0 -- -- 87
2020-04-02 21:00:00 5 18 Norte 25 Norte 0 -- -- 82
2020-04-02 20:00:00 6.2 12 Norte 35 Noroeste 0 -- -- 68
2020-04-02 19:00:00 7.3 10 Noroeste 39 Norte 0 -- -- 66
2020-04-02 18:00:00 7.9 14 Norte 29 Norte 0 -- -- 69
2020-04-02 17:00:00 8 20 Norte 33 Norte 0.2 -- -- 73
2020-04-02 16:00:00 8.7 24 Norte 34 Norte 0 -- -- 73
2020-04-02 15:00:00 7.6 18 Norte 34 Norte 0 -- -- 77
2020-04-02 14:00:00 7.5 23 Norte 38 Norte 0 -- -- 81
2020-04-02 13:00:00 7 10 Norte 30 Nordeste 0 -- -- 84
2020-04-02 12:00:00 7.5 19 Norte 32 Norte 0 -- -- 83
2020-04-02 11:00:00 6.5 15 Norte 26 Norte 0 -- -- 86
2020-04-02 10:00:00 5.9 16 Norte 27 Norte 0 -- -- 92
2020-04-02 09:00:00 5.6 13 Norte 32 Norte 0.2 -- -- 91
2020-04-02 08:00:00 5.7 14 Norte 35 Noroeste 0 -- -- 87
2020-04-02 07:00:00 5.7 18 Norte 28 Norte 0 -- -- 90
2020-04-02 06:00:00 5.8 16 Norte 24 Norte 0 -- -- 91
2020-04-02 05:00:00 5.9 12 Nordeste 20 Norte 0 -- -- 91
2020-04-02 04:00:00 5.7 17 Norte 22 Norte 0 -- -- 91
2020-04-02 03:00:00 5.5 6 Norte 19 Norte 0 -- -- 91
2020-04-02 02:00:00 5.5 4 Noroeste 14 Norte 0 -- -- 93
2020-04-02 01:00:00 5.6 2 Sudoeste 15 Nordeste 0 -- -- 94
2020-04-02 00:00:00 5.4 2 Este 8 Nordeste 0 -- -- 94
2020-04-01 23:00:00 5.3 2 Sudoeste 9 Sudoeste 0 -- -- 92
2020-04-01 22:00:00 5.3 5 Sudoeste 15 Sudoeste 0.6 -- -- 92
2020-04-01 21:00:00 6.5 3 Noroeste 17 Norte 1.6 -- -- 89
2020-04-01 20:00:00 7.3 10 Norte 21 Nordeste 0.4 -- -- 85
2020-04-01 19:00:00 8.7 12 Norte 21 Norte 0 -- -- 76
2020-04-01 18:00:00 9.2 17 Norte 23 Norte 0 -- -- 76
2020-04-01 17:00:00 10.5 15 Norte 23 Norte 0 -- -- 68
2020-04-01 16:00:00 11 8 Norte 14 Sur 0 -- -- 70
2020-04-01 15:00:00 9.8 5 Sudoeste 12 Sudoeste 0 -- -- 69
2020-04-01 14:00:00 9.7 5 Sur 10 Sudoeste 0 -- -- 73
2020-04-01 13:00:00 8.8 4 Nordeste 6 Este 0 -- -- 83
2020-04-01 12:00:00 8 3 Nordeste 8 Norte 0 -- -- 88
2020-04-01 11:00:00 6.8 4 Norte 10 Norte 0 -- -- 94
2020-04-01 10:00:00 5 3 Norte 8 Sudoeste 0.2 -- -- 96
2020-04-01 09:00:00 4.5 7 Sudoeste 10 Sudoeste 0 -- -- 94
2020-04-01 08:00:00 4.4 5 Sudeste 9 Este 0 -- -- 94
2020-04-01 07:00:00 4.3 0 Calma 9 Noroeste 0.2 -- -- 95
2020-04-01 06:00:00 4.6 3 Sudeste 15 Sudeste 1.2 -- -- 93
2020-04-01 05:00:00 4.6 9 Sudeste 15 Sudeste 0.4 -- -- 92
2020-04-01 04:00:00 4.5 10 Sudeste 24 Este 0.8 -- -- 89
2020-04-01 03:00:00 4.9 16 Sudeste 28 Sudeste 0 -- -- 89
2020-04-01 02:00:00 5.2 15 Este 31 Sudeste 0 -- -- 87
2020-04-01 01:00:00 5.4 11 Este 30 Sudeste 0 -- -- 85
2020-04-01 00:00:00 5.1 7 Este 33 Sudeste 0 -- -- 83
2020-03-31 23:00:00 4.9 17 Sudeste 32 Sudeste 0 -- -- 81
2020-03-31 22:00:00 4.8 14 Sudeste 35 Este 0 -- -- 81
2020-03-31 21:00:00 4.7 23 Sudeste 48 Sudeste 0 -- -- 81
2020-03-31 20:00:00 5.3 24 Sudeste 48 Sudeste 0 -- -- 76
2020-03-31 19:00:00 5.4 15 Sudeste 39 Este 0 -- -- 74
2020-03-31 18:00:00 6.8 19 Sudeste 46 Sudeste 0 -- -- 71
2020-03-31 17:00:00 7.6 24 Sudeste 46 Sudeste 0 -- -- 69
2020-03-31 16:00:00 7.7 23 Sudeste 44 Sudeste 0 -- -- 67
2020-03-31 15:00:00 6.7 25 Sudeste 43 Sudeste 0 -- -- 70
2020-03-31 14:00:00 6.4 13 Sudeste 47 Sudeste 0 -- -- 69
2020-03-31 13:00:00 6.8 31 Sudeste 47 Sudeste 0 -- -- 63
2020-03-31 12:00:00 4.2 7 Norte 18 Norte 0 -- -- 64
2020-03-31 11:00:00 3.8 10 Norte 19 Noroeste 0 -- -- 64
2020-03-31 10:00:00 0.7 3 Sudeste 12 Nordeste 0 -- -- 64
2020-03-31 09:00:00 -1 4 Sudeste 13 Norte 0 -- -- 73
2020-03-31 08:00:00 -0.8 10 Norte 19 Norte 0 -- -- 76
2020-03-31 07:00:00 -0.8 12 Norte 18 Nordeste 0 -- -- 79
2020-03-31 06:00:00 -1.1 10 Norte 21 Norte 0 -- -- 79
2020-03-31 05:00:00 -1.1 15 Norte 23 Norte 0 -- -- 80
2020-03-31 04:00:00 -1.3 11 Norte 23 Norte 0 -- -- 79
2020-03-31 03:00:00 -0.8 14 Norte 22 Norte 0 -- -- 84
2020-03-31 02:00:00 -0.7 15 Norte 23 Norte 0 -- -- 84
2020-03-31 01:00:00 -1.1 15 Norte 24 Norte 0 -- -- 85
2020-03-31 00:00:00 -1.1 17 Norte 33 Norte 0 -- -- 83
2020-03-30 23:00:00 -1.1 21 Norte 33 Norte 0 -- -- 82
2020-03-30 22:00:00 -1.1 18 Norte 35 Noroeste 0 -- -- 82
2020-03-30 21:00:00 -1.1 15 Norte 32 Noroeste 0 -- -- 79
2020-03-30 20:00:00 -0.7 17 Norte 37 Noroeste 0 -- -- 74
2020-03-30 19:00:00 0.8 22 Noroeste 43 Oeste 0 -- -- 69
2020-03-30 18:00:00 2.1 16 Norte 35 Nordeste 0 -- -- 65
2020-03-30 17:00:00 1.5 22 Norte 31 Norte 0 -- -- 72
2020-03-30 16:00:00 0.9 13 Nordeste 29 Norte 0.2 -- -- 78
2020-03-30 15:00:00 1.6 22 Norte 31 Norte 0 -- -- 75
2020-03-30 14:00:00 1.2 17 Nordeste 40 Norte 0 -- -- 78
2020-03-30 13:00:00 1.1 25 Norte 40 Norte 0 -- -- 73
2020-03-30 12:00:00 1.1 16 Norte 39 Nordeste 0 -- -- 71
2020-03-30 11:00:00 0.1 18 Norte 40 Norte 0 -- -- 76
2020-03-30 10:00:00 -0.6 17 Norte 32 Noroeste 0 -- -- 91
2020-03-30 09:00:00 -0.9 15 Norte 33 Norte 0 -- -- 83
2020-03-30 08:00:00 -0.5 17 Norte 30 Norte 0 -- -- 79
2020-03-30 07:00:00 -0.3 23 Norte 42 Norte 0 -- -- 80
2020-03-30 06:00:00 0.3 15 Norte 34 Norte 0 -- -- 81
2020-03-30 05:00:00 0.7 25 Norte 43 Norte 0 -- -- 84
2020-03-30 04:00:00 1.4 22 Norte 38 Norte 0 -- -- 77
2020-03-30 03:00:00 1.9 19 Norte 33 Norte 0 -- -- 82
2020-03-30 02:00:00 2.4 19 Norte 37 Noroeste 0 -- -- 82
2020-03-30 01:00:00 2.6 19 Noroeste 39 Noroeste 0 -- -- 82
2020-03-30 00:00:00 3 18 Norte 42 Noroeste 0 -- -- 85
2020-03-29 23:00:00 3.7 24 Norte 39 Noroeste 0 -- -- 85
2020-03-29 22:00:00 4.6 20 Norte 34 Noroeste 0 -- -- 84
2020-03-29 21:00:00 5.2 13 Norte 31 Norte 0 -- -- 78
2020-03-29 20:00:00 5.8 18 Norte 33 Noroeste 0 -- -- 77
2020-03-29 19:00:00 6.4 21 Noroeste 41 Norte 0 -- -- 74
2020-03-29 18:00:00 7.7 31 Norte 48 Norte 0 -- -- 76
2020-03-29 17:00:00 8.7 36 Norte 54 Norte 0 -- -- 71
2020-03-29 16:00:00 9.9 32 Norte 41 Norte 0 -- -- 65
2020-03-29 15:00:00 10.7 28 Norte 33 Norte 0 -- -- 63
2020-03-29 14:00:00 11.9 21 Norte 30 Norte 0 -- -- 57
2020-03-29 13:00:00 11.6 4 Nordeste 9 Norte 0 -- -- 58
2020-03-29 12:00:00 7.6 3 Este 6 Nordeste 0 -- -- 71
2020-03-29 11:00:00 4.1 3 Nordeste 6 Norte 0 -- -- 88
2020-03-29 10:00:00 0.7 0 Calma 6 Este 0 -- -- 96
2020-03-29 09:00:00 -0.2 0 Calma 5 Sur 0 -- -- 97
2020-03-29 08:00:00 -0.6 2 Sur 3 Sur 0 -- -- 96
2020-03-29 07:00:00 -1.1 2 Sudoeste 3 Sudoeste 0 -- -- 96
2020-03-29 06:00:00 -1.2 0 Calma 2 Sur 0 -- -- 95
2020-03-29 05:00:00 -1 0 Calma 3 Sur 0 -- -- 95
2020-03-29 03:00:00 0.4 0 Calma 2 Sur 0 -- -- 90
2020-03-29 01:00:00 1.2 0 Calma 3 Sur 0 -- -- 89
2020-03-29 00:00:00 2.3 0 Calma 5 Este 0 -- -- 86
2020-03-28 23:00:00 3.6 0 Calma 7 Sudoeste 0 -- -- 83
2020-03-28 22:00:00 5.5 3 Este 12 Este 0 -- -- 78
2020-03-28 21:00:00 7 0 Calma 24 Norte 0 -- -- 72
2020-03-28 20:00:00 8 17 Norte 29 Norte 0 -- -- 69
2020-03-28 19:00:00 9.5 20 Norte 31 Norte 0 -- -- 65
2020-03-28 18:00:00 11.5 19 Norte 32 Norte 0 -- -- 54
2020-03-28 17:00:00 12.9 18 Norte 31 Norte 0 -- -- 47
2020-03-28 16:00:00 14.1 22 Norte 26 Norte 0 -- -- 44
2020-03-28 15:00:00 15.7 9 Norte 16 Norte 0 -- -- 30
2020-03-28 14:00:00 15 9 Norte 14 Norte 0 -- -- 35
2020-03-28 13:00:00 13.3 6 Norte 8 Norte 0 -- -- 37
2020-03-28 12:00:00 11.6 4 Nordeste 6 Nordeste 0 -- -- 48
2020-03-28 11:00:00 7.6 3 Nordeste 5 Norte 0 -- -- 59
2020-03-28 10:00:00 3.9 3 Nordeste 5 Nordeste 0 -- -- 69
2020-03-28 09:00:00 0.5 0 Calma 5 Este 0 -- -- 76
2020-03-28 08:00:00 -3 0 Calma 2 Sudeste 0 -- -- 91
2020-03-28 07:00:00 -4.2 0 Calma 2 Sudoeste 0 -- -- 90
2020-03-28 06:00:00 -3.8 0 Calma 3 Sur 0 -- -- 89
2020-03-28 05:00:00 -3.2 0 Calma 2 Sudoeste 0 -- -- 86
2020-03-28 04:00:00 -2.9 0 Calma 3 Sur 0 -- -- 84
2020-03-28 03:00:00 -2.3 2 Sudoeste 4 Sur 0 -- -- 81
2020-03-28 02:00:00 -1.7 0 Calma 3 Sur 0 -- -- 80
2020-03-28 01:00:00 -1 2 Sudoeste 6 Norte 0 -- -- 75
2020-03-28 00:00:00 0 0 Calma 4 Sudeste 0 -- -- 71
2020-03-27 23:00:00 1.2 0 Calma 7 Sudeste 0 -- -- 66
2020-03-27 22:00:00 2.8 4 Este 12 Este 0 -- -- 64
2020-03-27 21:00:00 3.2 6 Noroeste 15 Sur 0 -- -- 54
2020-03-27 20:00:00 6.8 10 Sur 18 Sur 0 -- -- 40
2020-03-27 19:00:00 8.5 8 Sudeste 18 Sudeste 0 -- -- 40
2020-03-27 18:00:00 10.5 13 Sudeste 25 Sudeste 0 -- -- 36
2020-03-27 17:00:00 10.8 4 Sur 22 Sudeste 0 -- -- 30
2020-03-27 16:00:00 10.6 11 Este 20 Este 0 -- -- 35
2020-03-27 15:00:00 9.7 18 Este 29 Este 0 -- -- 32
2020-03-27 14:00:00 10.2 16 Este 33 Este 0 -- -- 31
2020-03-27 13:00:00 10.3 19 Sudeste 37 Sudeste 0 -- -- 32
2020-03-27 12:00:00 9.1 19 Sudeste 42 Sudeste 0 -- -- 31
2020-03-27 11:00:00 5.2 8 Noroeste 14 Norte 0 -- -- 54
2020-03-27 10:00:00 2.9 2 Nordeste 5 Nordeste 0 -- -- 67
2020-03-27 09:00:00 0.3 2 Este 5 Nordeste 0 -- -- 75
2020-03-27 08:00:00 -2.9 0 Calma 7 Sur 0 -- -- 86
2020-03-27 07:00:00 -2.8 0 Calma 14 Este 0 -- -- 87
2020-03-27 06:00:00 -1.2 8 Nordeste 20 Nordeste 0 -- -- 85
2020-03-27 05:00:00 -0.8 15 Norte 21 Norte 0 -- -- 88
2020-03-27 04:00:00 -0.5 12 Norte 22 Norte 0 -- -- 84
2020-03-27 03:00:00 -0.5 6 Norte 16 Norte 0 -- -- 81
2020-03-27 02:00:00 0.6 9 Norte 22 Norte 0 -- -- 75
2020-03-27 01:00:00 1.2 14 Norte 28 Norte 0 -- -- 73
2020-03-27 00:00:00 1.6 17 Norte 30 Noroeste 0 -- -- 66
2020-03-26 23:00:00 2.1 18 Norte 43 Norte 0 -- -- 66
2020-03-26 22:00:00 2.8 28 Norte 44 Noroeste 0 -- -- 71
2020-03-26 21:00:00 2.9 22 Norte 42 Norte 0 -- -- 70
2020-03-26 20:00:00 3.2 17 Noroeste 42 Noroeste 0 -- -- 65
2020-03-26 19:00:00 4 11 Norte 35 Noroeste 0 -- -- 63
2020-03-26 18:00:00 6 15 Norte 40 Noroeste 0 -- -- 59
2020-03-26 17:00:00 7.2 26 Norte 42 Noroeste 0 -- -- 52
2020-03-26 16:00:00 7.6 28 Norte 39 Norte 0 -- -- 53
2020-03-26 15:00:00 7.7 27 Norte 38 Norte 0 -- -- 57
2020-03-26 14:00:00 7.1 28 Norte 47 Norte 0 -- -- 62
2020-03-26 13:00:00 6.7 32 Norte 47 Norte 0 -- -- 63
2020-03-26 12:00:00 6.2 24 Norte 47 Norte 0 -- -- 61
2020-03-26 11:00:00 5.5 27 Norte 43 Norte 0 -- -- 60
2020-03-26 10:00:00 4.6 29 Norte 39 Norte 0 -- -- 68
2020-03-26 09:00:00 3.8 26 Norte 37 Norte 0 -- -- 69
2020-03-26 08:00:00 2.5 16 Norte 26 Norte 0 -- -- 65
2020-03-26 07:00:00 0.8 12 Norte 26 Norte 0 -- -- 59
2020-03-26 06:00:00 0.3 4 Sudeste 22 Nordeste 0 -- -- 59
2020-03-26 05:00:00 2.6 16 Nordeste 22 Nordeste 0 -- -- 52
2020-03-26 04:00:00 2.8 7 Norte 18 Norte 0 -- -- 44
2020-03-26 03:00:00 3.1 3 Noroeste 19 Norte 0 -- -- 51
2020-03-26 02:00:00 3.7 14 Norte 35 Norte 0 -- -- 65
2020-03-26 01:00:00 4.5 19 Norte 37 Norte 0 -- -- 67
2020-03-26 00:00:00 4.8 21 Norte 33 Nordeste 0 -- -- 67
2020-03-25 23:00:00 5 12 Nordeste 31 Norte 0 -- -- 77
2020-03-25 22:00:00 5.9 19 Norte 35 Norte 0 -- -- 78
2020-03-25 21:00:00 6.7 23 Norte 37 Nordeste 0 -- -- 72
2020-03-25 20:00:00 7.7 20 Norte 36 Norte 0 -- -- 50
2020-03-25 19:00:00 9.1 25 Norte 42 Norte 0 -- -- 43
2020-03-25 18:00:00 11.3 25 Norte 37 Norte 0 -- -- 31
2020-03-25 17:00:00 12.6 21 Norte 33 Norte 0 -- -- 30
2020-03-25 16:00:00 13.1 24 Norte 36 Norte 0 -- -- 30
2020-03-25 15:00:00 13.2 23 Norte 33 Norte 0 -- -- 33
2020-03-25 14:00:00 12.7 26 Norte 37 Norte 0 -- -- 32
2020-03-25 13:00:00 12.5 26 Norte 35 Norte 0 -- -- 38
2020-03-25 12:00:00 12.3 19 Norte 32 Norte 0 -- -- 32
2020-03-25 11:00:00 7.7 2 Este 6 Nordeste 0 -- -- 79
2020-03-25 10:00:00 3.6 0 Calma 6 Norte 0 -- -- 96
2020-03-25 09:00:00 2.4 2 Este 10 Este 0 -- -- 100
2020-03-25 08:00:00 2.1 5 Este 8 Este 0 -- -- 99
2020-03-25 07:00:00 1.8 0 Calma 5 Sudoeste 0 -- -- 98
2020-03-25 06:00:00 1.2 3 Sur 4 Sur 0 -- -- 97
2020-03-25 05:00:00 0.9 0 Calma 3 Sur 0 -- -- 95
2020-03-25 04:00:00 1.2 0 Calma 2 Sur 0 -- -- 93
2020-03-25 03:00:00 2.3 0 Calma 3 Sur 0 -- -- 91
2020-03-25 02:00:00 3.4 2 Sudeste 5 Este 0 -- -- 90
2020-03-25 01:00:00 4.8 3 Sur 11 Este 0 -- -- 88
2020-03-25 00:00:00 6 3 Sur 6 Sudeste 0 -- -- 86
2020-03-24 23:00:00 7 5 Este 12 Este 0 -- -- 84
2020-03-24 22:00:00 8.3 0 Calma 10 Sur 0 -- -- 80
2020-03-24 21:00:00 9.6 8 Sudoeste 20 Sudoeste 0 -- -- 74
2020-03-24 20:00:00 10.6 3 Este 20 Norte 0 -- -- 78
2020-03-24 19:00:00 11.8 12 Norte 26 Norte 0 -- -- 72
2020-03-24 18:00:00 13.8 7 Noroeste 23 Norte 0 -- -- 60
2020-03-24 17:00:00 15.7 5 Norte 16 Sur 0 -- -- 46
2020-03-24 16:00:00 17.5 10 Sudeste 23 Sur 0 -- -- 38
2020-03-24 15:00:00 17.1 13 Sur 29 Sudeste 0 -- -- 39
2020-03-24 14:00:00 15.9 14 Sudeste 30 Sudeste 0 -- -- 40
2020-03-24 13:00:00 15.2 14 Sudeste 36 Sudeste 0 -- -- 44
2020-03-24 12:00:00 13.8 14 Este 33 Sudeste 0 -- -- 52
2020-03-24 11:00:00 11.3 2 Norte 5 Nordeste 0 -- -- 69
2020-03-24 10:00:00 8.1 3 Este 5 Nordeste 0 -- -- 76
2020-03-24 09:00:00 5.8 5 Nordeste 8 Nordeste 0 -- -- 84
2020-03-24 08:00:00 2.7 3 Sur 10 Este 0 -- -- 93
2020-03-24 07:00:00 2.8 4 Sudeste 10 Este 0 -- -- 91
2020-03-24 06:00:00 3.7 7 Este 11 Este 0 -- -- 92
2020-03-24 05:00:00 4 3 Noroeste 6 Noroeste 0 -- -- 94
2020-03-24 04:00:00 3.7 0 Calma 4 Noroeste 0 -- -- 94
2020-03-24 03:00:00 3.7 0 Calma 6 Noroeste 0 -- -- 94
2020-03-24 02:00:00 4.3 3 Noroeste 10 Noroeste 0 -- -- 92
2020-03-24 01:00:00 5.3 4 Norte 10 Noroeste 0 -- -- 91
2020-03-24 00:00:00 5.2 8 Noroeste 17 Noroeste 0 -- -- 90
2020-03-23 23:00:00 6 3 Nordeste 14 Nordeste 0 -- -- 89
2020-03-23 22:00:00 5.7 7 Norte 13 Norte 0 -- -- 91
2020-03-23 21:00:00 7.1 3 Nordeste 22 Norte 0 -- -- 85
2020-03-23 20:00:00 8.3 12 Nordeste 26 Norte 0 -- -- 81
2020-03-23 19:00:00 9.7 18 Norte 28 Norte 0 -- -- 76
2020-03-23 18:00:00 12.8 11 Este 28 Este 0 -- -- 55
2020-03-23 17:00:00 14.3 10 Sudeste 22 Este 0 -- -- 48
2020-03-23 16:00:00 14.6 10 Sudeste 25 Sudeste 0 -- -- 47
2020-03-23 15:00:00 13.1 16 Sudeste 27 Este 0 -- -- 51
2020-03-23 14:00:00 12.9 13 Este 22 Sudeste 0 -- -- 53
2020-03-23 13:00:00 12 3 Norte 9 Norte 0 -- -- 57
2020-03-23 12:00:00 8.2 3 Este 5 Este 0 -- -- 78
2020-03-23 11:00:00 5.3 3 Nordeste 7 Noroeste 0 -- -- 87
2020-03-23 10:00:00 2 3 Sudeste 8 Sudeste 0 -- -- 98
2020-03-23 09:00:00 0.9 2 Sudeste 10 Este 0 -- -- 99
2020-03-23 08:00:00 0.4 3 Sur 10 Este 0 -- -- 98
2020-03-23 07:00:00 0 0 Calma 6 Sur 0 -- -- 98
2020-03-23 06:00:00 -0.6 2 Sur 5 Sudoeste 0 -- -- 97
2020-03-23 05:00:00 -0.5 0 Calma 5 Norte 0 -- -- 97
2020-03-23 04:00:00 0 0 Calma 4 Noroeste 0 -- -- 94
2020-03-23 03:00:00 0.8 3 Norte 11 Este 0 -- -- 94
2020-03-23 02:00:00 1.4 0 Calma 10 Este 0 -- -- 92
2020-03-23 01:00:00 2.6 0 Calma 8 Este 0 -- -- 90
2020-03-23 00:00:00 4 0 Calma 10 Sudoeste 0 -- -- 87
2020-03-22 23:00:00 5.1 7 Nordeste 17 Nordeste 0 -- -- 89
2020-03-22 22:00:00 6 4 Norte 17 Norte 0 -- -- 87
2020-03-22 21:00:00 7.2 9 Norte 19 Norte 0 -- -- 82
2020-03-22 20:00:00 8.3 15 Norte 21 Norte 0 -- -- 80
2020-03-22 19:00:00 9.9 13 Norte 26 Norte 0 -- -- 73
2020-03-22 18:00:00 11.8 17 Norte 32 Norte 0 -- -- 63
2020-03-22 17:00:00 13.3 18 Norte 35 Noroeste 0 -- -- 58
2020-03-22 16:00:00 14.4 13 Norte 31 Este 0 -- -- 53
2020-03-22 15:00:00 14.7 15 Nordeste 34 Norte 0 -- -- 37
2020-03-22 14:00:00 15 17 Norte 27 Noroeste 0 -- -- 40
2020-03-22 13:00:00 15.4 5 Nordeste 18 Norte 0 -- -- 51
2020-03-22 12:00:00 12.9 3 Este 6 Este 0 -- -- 58
2020-03-22 11:00:00 10.1 0 Calma 4 Nordeste 0 -- -- 77
2020-03-22 10:00:00 7.3 2 Nordeste 5 Norte 0 -- -- 85
2020-03-22 09:00:00 4.3 0 Calma 8 Este 0 -- -- 96
2020-03-22 08:00:00 3.8 3 Este 10 Este 0 -- -- 95
2020-03-22 07:00:00 4 4 Este 10 Este 0 -- -- 94
2020-03-22 06:00:00 4.1 5 Este 9 Este 0 -- -- 93
2020-03-22 05:00:00 4.3 0 Calma 9 Este 0 -- -- 93
2020-03-22 04:00:00 4.4 0 Calma 6 Este 0 -- -- 92
2020-03-22 03:00:00 4.5 0 Calma 4 Nordeste 0 -- -- 94
2020-03-22 02:00:00 4.1 0 Calma 6 Noroeste 0 -- -- 93
2020-03-22 01:00:00 4.8 2 Noroeste 5 Noroeste 0 -- -- 91
2020-03-22 00:00:00 6.1 0 Calma 6 Noroeste 0 -- -- 93
2020-03-21 23:00:00 6.7 0 Calma 6 Norte 0 -- -- 90
2020-03-21 22:00:00 7.1 3 Noroeste 5 Norte 0 -- -- 89
2020-03-21 21:00:00 7.7 0 Calma 12 Noroeste 0 -- -- 87
2020-03-21 20:00:00 8.8 4 Noroeste 15 Noroeste 0 -- -- 80
2020-03-21 19:00:00 9.8 3 Noroeste 22 Nordeste 0 -- -- 72
2020-03-21 18:00:00 12.6 8 Norte 25 Sur 0 -- -- 63
2020-03-21 17:00:00 14.8 10 Sur 27 Sudoeste 0 -- -- 53
2020-03-21 16:00:00 15.2 14 Sur 35 Sur 0 -- -- 54
2020-03-21 15:00:00 15.1 18 Sur 35 Sur 0 -- -- 57
2020-03-21 14:00:00 15.3 19 Sur 30 Sur 0 -- -- 59
2020-03-21 13:00:00 15 3 Sudeste 10 Norte 0 -- -- 55
2020-03-21 12:00:00 13.6 8 Norte 13 Norte 0 -- -- 61
2020-03-21 11:00:00 11.9 9 Norte 13 Norte 0 -- -- 68
2020-03-21 10:00:00 9.8 4 Nordeste 6 Nordeste 0 -- -- 79
2020-03-21 09:00:00 8.3 2 Sur 5 Sudeste 0 -- -- 81
2020-03-21 08:00:00 7.3 6 Sudeste 13 Sudeste 0 -- -- 84
2020-03-21 07:00:00 7.4 6 Sudeste 18 Sudeste 0 -- -- 85
2020-03-21 06:00:00 7.3 6 Sudeste 14 Sur 0 -- -- 86
2020-03-21 05:00:00 6.1 8 Sur 13 Sur 0 -- -- 94
2020-03-21 04:00:00 5 2 Sur 6 Sudoeste 0 -- -- 95
2020-03-21 03:00:00 5.6 0 Calma 4 Norte 0 -- -- 91
2020-03-21 02:00:00 7.5 2 Norte 12 Sudeste 0 -- -- 88
2020-03-21 01:00:00 8.4 6 Sur 17 Sudeste 0 -- -- 86
2020-03-21 00:00:00 8.5 6 Este 30 Sur 0 -- -- 85
2020-03-20 23:00:00 8.9 17 Sur 26 Sur 0.2 -- -- 85
2020-03-20 22:00:00 8.3 5 Sudoeste 11 Sur 0.4 -- -- 88
2020-03-20 21:00:00 8.3 0 Calma 5 Sudeste 0 -- -- 80
2020-03-20 20:00:00 9.5 3 Sur 13 Sudeste 0 -- -- 75
2020-03-20 19:00:00 10.6 9 Sudeste 18 Este 0 -- -- 71
2020-03-20 18:00:00 11 5 Sudeste 21 Sur 0 -- -- 68
2020-03-20 17:00:00 11.4 9 Sur 22 Sur 0 -- -- 66
2020-03-20 16:00:00 12 10 Sur 23 Sur 0 -- -- 65
2020-03-20 15:00:00 11.2 6 Sur 15 Sudoeste 0 -- -- 71
2020-03-20 14:00:00 10.4 6 Sudoeste 15 Sudoeste 0 -- -- 72
2020-03-20 13:00:00 9.3 8 Sudoeste 22 Sur 0 -- -- 77
2020-03-20 12:00:00 9.7 14 Sur 21 Sur 0 -- -- 76
2020-03-20 11:00:00 8.2 4 Norte 5 Norte 0 -- -- 83
2020-03-20 10:00:00 6.5 0 Calma 4 Sudeste 0 -- -- 83
2020-03-20 09:00:00 3.9 2 Sudeste 4 Sur 0 -- -- 92
2020-03-20 08:00:00 2.6 2 Sudoeste 7 Noroeste 0 -- -- 92
2020-03-20 07:00:00 2.4 3 Noroeste 6 Noroeste 0 -- -- 92
2020-03-20 06:00:00 1.8 0 Calma 4 Sudoeste 0 -- -- 93
2020-03-20 05:00:00 2 2 Noroeste 4 Noroeste 0 -- -- 90
2020-03-20 04:00:00 2.3 2 Sudoeste 4 Sur 0 -- -- 90
2020-03-20 03:00:00 3.2 0 Calma 4 Noroeste 0 -- -- 84
2020-03-20 02:00:00 4.1 0 Calma 3 Noroeste 0 -- -- 81
2020-03-20 01:00:00 4.7 0 Calma 4 Este 0 -- -- 80
2020-03-20 00:00:00 5.6 0 Calma 6 Sudeste 0 -- -- 76
2020-03-19 23:00:00 6.6 0 Calma 6 Sudoeste 0 -- -- 72
2020-03-19 22:00:00 7.3 3 Norte 6 Noroeste 0 -- -- 71
2020-03-19 21:00:00 8.9 4 Noroeste 8 Sur 0 -- -- 63
2020-03-19 20:00:00 11.1 3 Sur 15 Sur 0 -- -- 54
2020-03-19 19:00:00 12.5 3 Sur 17 Sur 0 -- -- 48
2020-03-19 18:00:00 13.7 12 Sur 26 Sur 0 -- -- 43
2020-03-19 17:00:00 14.6 17 Sur 33 Sur 0 -- -- 42
2020-03-19 16:00:00 15.9 21 Sur 31 Sur 0 -- -- 43
2020-03-19 15:00:00 18.5 12 Sur 23 Sudeste 0 -- -- 42
2020-03-19 14:00:00 17.5 5 Sudeste 13 Norte 0 -- -- 45
2020-03-19 13:00:00 15.9 7 Norte 13 Norte 0 -- -- 59
2020-03-19 12:00:00 11.7 4 Nordeste 5 Nordeste 0 -- -- 73
2020-03-19 11:00:00 9 2 Nordeste 5 Norte 0 -- -- 81
2020-03-19 10:00:00 6.5 2 Nordeste 5 Nordeste 0 -- -- 89
2020-03-19 09:00:00 3.3 0 Calma 2 Nordeste 0 -- -- 99
2020-03-19 08:00:00 1.8 0 Calma 3 Sur 0 -- -- 97
2020-03-19 07:00:00 1.9 0 Calma 2 Sudeste 0 -- -- 96
2020-03-19 06:00:00 2.4 0 Calma 2 Sudeste 0 -- -- 96
2020-03-19 05:00:00 2.9 0 Calma 2 Sur 0 -- -- 95
2020-03-19 04:00:00 3.5 0 Calma 4 Sudoeste 0 -- -- 92
2020-03-19 03:00:00 4.4 0 Calma 2 Sudoeste 0 -- -- 89
2020-03-19 02:00:00 5.5 0 Calma 6 Sudoeste 0 -- -- 88
2020-03-19 01:00:00 6.1 0 Calma 8 Sur 0 -- -- 86
2020-03-19 00:00:00 6.8 3 Sur 5 Sur 0 -- -- 84
2020-03-18 23:00:00 7.8 0 Calma 11 Sur 0 -- -- 80
2020-03-18 22:00:00 8.7 3 Sudeste 11 Noroeste 0 -- -- 79
2020-03-18 21:00:00 10.1 5 Noroeste 14 Sudoeste 0 -- -- 72
2020-03-18 20:00:00 13 6 Sudoeste 17 Sur 0 -- -- 61
2020-03-18 19:00:00 15.2 6 Sur 13 Sudoeste 0 -- -- 54
2020-03-18 18:00:00 17 5 Sudoeste 14 Sudoeste 0 -- -- 46
2020-03-18 17:00:00 17.9 9 Sudoeste 26 Sudoeste 0 -- -- 45
2020-03-18 16:00:00 18 9 Sudoeste 24 Sudoeste 0 -- -- 50
2020-03-18 15:00:00 17 3 Nordeste 5 Norte 0 -- -- 55
2020-03-18 14:00:00 14.8 3 Nordeste 5 Norte 0 -- -- 60
2020-03-18 13:00:00 11.5 3 Este 6 Nordeste 0 -- -- 69
2020-03-18 12:00:00 10.7 3 Nordeste 5 Norte 0 -- -- 74
2020-03-18 11:00:00 8.3 2 Norte 7 Nordeste 0 -- -- 85
2020-03-18 10:00:00 6.3 2 Norte 8 Norte 0 -- -- 92
2020-03-18 09:00:00 4.9 0 Calma 5 Norte 0 -- -- 93
2020-03-18 08:00:00 4.2 4 Norte 8 Noroeste 0 -- -- 95
2020-03-18 07:00:00 4 0 Calma 5 Sudoeste 0 -- -- 95
2020-03-18 06:00:00 3.9 2 Oeste 6 Norte 0 -- -- 94
2020-03-18 05:00:00 4 4 Norte 9 Noroeste 0 -- -- 96
2020-03-18 04:00:00 3.6 0 Calma 4 Noroeste 0 -- -- 96
2020-03-18 03:00:00 2.9 0 Calma 4 Sur 0 -- -- 96
2020-03-18 02:00:00 2.8 3 Sudoeste 5 Sur 0 -- -- 95
2020-03-18 01:00:00 3.3 0 Calma 6 Sur 0 -- -- 95
2020-03-18 00:00:00 3.9 2 Sur 8 Noroeste 0 -- -- 93
2020-03-17 23:00:00 4.4 0 Calma 8 Sur 0 -- -- 91
2020-03-17 22:00:00 5.3 0 Calma 8 Sur 0 -- -- 89
2020-03-17 21:00:00 6.8 0 Calma 5 Noroeste 0 -- -- 84
2020-03-17 20:00:00 9.4 3 Este 18 Sudeste 0 -- -- 75
2020-03-17 19:00:00 10.6 6 Sudeste 14 Este 0 -- -- 73
2020-03-17 18:00:00 11 7 Este 23 Este 0 -- -- 71
2020-03-17 17:00:00 11.2 15 Este 24 Este 0 -- -- 69
2020-03-17 16:00:00 12.2 15 Este 26 Sudeste 0 -- -- 66
2020-03-17 15:00:00 12.8 18 Este 32 Sudeste 0 -- -- 65
2020-03-17 14:00:00 11.9 23 Sudeste 33 Sudeste 0 -- -- 66
2020-03-17 13:00:00 13 20 Sudeste 40 Sudeste 0 -- -- 61
2020-03-17 12:00:00 11.9 9 Nordeste 15 Norte 0 -- -- 65
2020-03-17 11:00:00 8.9 3 Nordeste 6 Norte 0 -- -- 74
2020-03-17 10:00:00 6.9 5 Norte 10 Norte 0 -- -- 78
2020-03-17 09:00:00 4.2 5 Nordeste 14 Norte 0 -- -- 86
2020-03-17 08:00:00 2.1 12 Nordeste 17 Nordeste 0 -- -- 93
2020-03-17 07:00:00 1.9 3 Nordeste 23 Norte 0 -- -- 90
2020-03-17 06:00:00 2.8 12 Norte 32 Norte 0 -- -- 89
2020-03-17 05:00:00 3.7 18 Norte 34 Norte 0 -- -- 87
2020-03-17 04:00:00 3.8 28 Norte 42 Norte 0 -- -- 87
2020-03-17 03:00:00 3.6 31 Norte 45 Norte 0 -- -- 85
2020-03-17 02:00:00 3.2 23 Norte 47 Norte 0 -- -- 84
2020-03-17 01:00:00 2.6 21 Norte 46 Nordeste 0 -- -- 86
2020-03-17 00:00:00 2.5 24 Norte 43 Norte 0 -- -- 86
2020-03-16 23:00:00 2.5 19 Norte 39 Norte 0 -- -- 85
2020-03-16 22:00:00 2.7 27 Norte 43 Norte 0 -- -- 89
2020-03-16 21:00:00 2.9 32 Norte 49 Norte 0 -- -- 89
2020-03-16 20:00:00 2.9 30 Norte 52 Norte 0 -- -- 84
2020-03-16 19:00:00 3.3 31 Norte 50 Norte 0 -- -- 87
2020-03-16 18:00:00 3.6 32 Norte 46 Norte 0 -- -- 83
2020-03-16 17:00:00 4.7 29 Norte 55 Noroeste 0 -- -- 74
2020-03-16 16:00:00 4.9 32 Norte 63 Norte 0 -- -- 68
2020-03-16 15:00:00 4.5 28 Norte 63 Norte 0.2 -- -- 72
2020-03-16 14:00:00 4.5 38 Norte 55 Norte 0 -- -- 80
2020-03-16 13:00:00 3.6 33 Norte 51 Norte 0 -- -- 83
2020-03-16 12:00:00 3.7 36 Norte 47 Norte 0.8 -- -- 82
2020-03-16 11:00:00 3.1 26 Norte 41 Norte 1.6 -- -- 86
2020-03-16 10:00:00 2.3 24 Norte 37 Norte 1.6 -- -- 87
2020-03-16 09:00:00 1.4 21 Norte 39 Norte 0.4 -- -- 89
2020-03-16 08:00:00 1 19 Norte 45 Norte 0 -- -- 93
2020-03-16 07:00:00 1 20 Norte 36 Norte 0.2 -- -- 93
2020-03-16 06:00:00 0.7 0 Calma -- -- 0 -- -- 95
2020-03-16 05:00:00 0.6 0 Calma -- -- 0 -- -- 95
2020-03-16 04:00:00 0.6 0 Calma -- -- 0 -- -- 96
2020-03-16 03:00:00 0.2 0 Calma -- -- 0 -- -- 96
2020-03-16 02:00:00 0.3 0 Calma -- -- 0 -- -- 97
2020-03-16 01:00:00 0.2 0 Calma 23 Norte 0 -- -- 95
2020-03-16 00:00:00 0.8 13 Norte 33 Norte 0 -- -- 94
2020-03-15 23:00:00 1.7 21 Norte 46 Norte 0 -- -- 87
2020-03-15 22:00:00 2.3 24 Norte 35 Norte 0 -- -- 85
2020-03-15 21:00:00 2.6 27 Norte 44 Norte 0 -- -- 84
2020-03-15 20:00:00 3.1 26 Norte 44 Norte 0 -- -- 82
2020-03-15 19:00:00 4.3 32 Norte 46 Norte 0 -- -- 82
2020-03-15 18:00:00 6.7 26 Norte 44 Norte 0 -- -- 81
2020-03-15 17:00:00 9.5 33 Norte 51 Norte 0 -- -- 66
2020-03-15 16:00:00 14.4 10 Sudoeste 43 Sudoeste 0 -- -- 41
2020-03-15 15:00:00 15.4 18 Sur 46 Sudoeste 0 -- -- 39
2020-03-15 14:00:00 14.7 20 Sudoeste 40 Sudoeste 0 -- -- 27
2020-03-15 13:00:00 13.9 19 Sudoeste 34 Sudoeste 0 -- -- 36
2020-03-15 12:00:00 12.9 17 Sudoeste 42 Sudoeste 0 -- -- 47
2020-03-15 11:00:00 7.7 3 Nordeste 8 Nordeste 0 -- -- 71
2020-03-15 10:00:00 4.6 2 Este 4 Sudeste 0 -- -- 80
2020-03-15 09:00:00 1.8 0 Calma 5 Sur 0 -- -- 90
2020-03-15 08:00:00 -1.7 2 Sur 5 Sur 0 -- -- 97
2020-03-15 07:00:00 -1.6 0 Calma 3 Sur 0 -- -- 96
2020-03-15 06:00:00 -1.1 0 Calma 3 Sudoeste 0 -- -- 95
2020-03-15 05:00:00 -1.1 0 Calma 4 Sur 0 -- -- 94
2020-03-15 04:00:00 -0.3 0 Calma 4 Sur 0 -- -- 92
2020-03-15 03:00:00 0.2 0 Calma 4 Noroeste 0 -- -- 91
2020-03-15 02:00:00 0.9 0 Calma 3 Sur 0 -- -- 89
2020-03-15 01:00:00 1.9 0 Calma 5 Noroeste 0 -- -- 86
2020-03-15 00:00:00 2.9 0 Calma 6 Este 0 -- -- 83
2020-03-14 23:00:00 3.7 3 Sudeste 9 Sudeste 0 -- -- 80
2020-03-14 22:00:00 4.9 0 Calma 4 Este 0 -- -- 77
2020-03-14 21:00:00 6.7 0 Calma 3 Sudeste 0 -- -- 69
2020-03-14 20:00:00 9.3 2 Sur 13 Sur 0 -- -- 61
2020-03-14 19:00:00 12.2 6 Sur 22 Sur 0 -- -- 53
2020-03-14 18:00:00 15.6 13 Sur 30 Sur 0 -- -- 47
2020-03-14 17:00:00 16.1 20 Sur 30 Sur 0 -- -- 47
2020-03-14 16:00:00 17.4 10 Este 24 Sur 0 -- -- 40
2020-03-14 15:00:00 16.7 7 Nordeste 11 Norte 0 -- -- 33
2020-03-14 14:00:00 15.8 4 Nordeste 11 Norte 0 -- -- 28
2020-03-14 13:00:00 13.7 8 Norte 11 Norte 0 -- -- 38
2020-03-14 12:00:00 9.5 2 Nordeste 5 Nordeste 0 -- -- 54
2020-03-14 11:00:00 5.7 3 Nordeste 5 Nordeste 0 -- -- 67
2020-03-14 10:00:00 2.6 2 Nordeste 5 Norte 0 -- -- 77
2020-03-14 09:00:00 0.5 4 Nordeste 6 Nordeste 0 -- -- 92
2020-03-14 08:00:00 -1.6 3 Este 6 Este 0 -- -- 99
2020-03-14 07:00:00 -2.3 3 Sudeste 5 Este 0 -- -- 97
2020-03-14 06:00:00 -2.2 0 Calma 2 Sur 0 -- -- 96
2020-03-14 05:00:00 -1.7 0 Calma 4 Norte 0 -- -- 97
2020-03-14 04:00:00 -1.5 0 Calma 4 Norte 0 -- -- 97
2020-03-14 03:00:00 -0.9 0 Calma 4 Norte 0 -- -- 97
2020-03-14 02:00:00 -0.4 0 Calma 5 Norte 0 -- -- 95
2020-03-14 01:00:00 0.6 3 Noroeste 5 Noroeste 0 -- -- 96
2020-03-14 00:00:00 2.1 4 Este 14 Nordeste 0 -- -- 93
2020-03-13 23:00:00 3 4 Sur 13 Nordeste 0 -- -- 91
2020-03-13 22:00:00 4.3 7 Nordeste 22 Nordeste 0 -- -- 91
2020-03-13 21:00:00 5.1 9 Norte 21 Norte 0 -- -- 89
2020-03-13 20:00:00 6 2 Noroeste 14 Noroeste 0 -- -- 83
2020-03-13 19:00:00 7.5 4 Oeste 42 Norte 0 -- -- 78
2020-03-13 18:00:00 9.3 27 Norte 41 Norte 0 -- -- 75
2020-03-13 17:00:00 10 23 Norte 39 Norte 0 -- -- 74
2020-03-13 16:00:00 10 31 Norte 41 Norte 0 -- -- 73
2020-03-13 15:00:00 10.1 30 Norte 38 Norte 0 -- -- 73
2020-03-13 14:00:00 10.5 23 Norte 29 Norte 0 -- -- 71
2020-03-13 13:00:00 11.3 14 Norte 20 Norte 0 -- -- 67
2020-03-13 12:00:00 10.8 11 Norte 21 Norte 0 -- -- 69
2020-03-13 11:00:00 10.1 12 Norte 15 Norte 0 -- -- 67
2020-03-13 10:00:00 7.8 3 Nordeste 12 Este 0 -- -- 72
2020-03-13 09:00:00 7 10 Nordeste 20 Norte 0 -- -- 80
2020-03-13 08:00:00 5 14 Norte 18 Norte 0 -- -- 88
2020-03-13 07:00:00 5.2 10 Norte 30 Noroeste 0 -- -- 84
2020-03-13 06:00:00 5.3 11 Norte 28 Nordeste 0 -- -- 82
2020-03-13 05:00:00 5.5 10 Norte 25 Noroeste 0 -- -- 82
2020-03-13 04:00:00 5.6 13 Norte 33 Noroeste 0 -- -- 82
2020-03-13 03:00:00 5.8 19 Norte 39 Norte 0 -- -- 83
2020-03-13 02:00:00 6.2 18 Norte 32 Noroeste 0 -- -- 83
2020-03-13 01:00:00 6 15 Norte 27 Norte 0 -- -- 86
2020-03-13 00:00:00 6.4 18 Norte 28 Norte 0 -- -- 84
2020-03-12 23:00:00 6.5 16 Norte 34 Norte 0 -- -- 84
2020-03-12 22:00:00 6.4 20 Norte 31 Nordeste 0 -- -- 87
2020-03-12 21:00:00 6.7 18 Norte 37 Norte 0 -- -- 85
2020-03-12 20:00:00 7.2 17 Norte 35 Nordeste 0 -- -- 83
2020-03-12 19:00:00 7.4 23 Norte 38 Norte 0 -- -- 85
2020-03-12 18:00:00 7.7 27 Norte 40 Nordeste 0 -- -- 86
2020-03-12 17:00:00 8.9 30 Norte 45 Norte 0 -- -- 83
2020-03-12 16:00:00 10.2 32 Norte 45 Norte 0 -- -- 81
2020-03-12 15:00:00 11 33 Norte 45 Norte 0 -- -- 78
2020-03-12 14:00:00 13 26 Norte 37 Norte 0 -- -- 71
2020-03-12 13:00:00 14.8 9 Norte 18 Norte 0 -- -- 64
2020-03-12 12:00:00 12.4 6 Norte 10 Norte 0 -- -- 74
2020-03-12 11:00:00 10.5 3 Este 4 Este 0 -- -- 76
2020-03-12 10:00:00 6.8 0 Calma 3 Este 0 -- -- 89
2020-03-12 09:00:00 3.6 0 Calma 2 Noroeste 0 -- -- 97
2020-03-12 08:00:00 2.6 0 Calma 3 Noroeste 0 -- -- 96
2020-03-12 07:00:00 2.9 0 Calma 4 Sudoeste 0 -- -- 95
2020-03-12 06:00:00 3.3 3 Sudoeste 4 Sur 0 -- -- 97
2020-03-12 05:00:00 2.7 0 Calma 2 Sur 0 -- -- 94
2020-03-12 04:00:00 3.6 0 Calma 3 Oeste 0 -- -- 92
2020-03-12 03:00:00 4 0 Calma 4 Sudoeste 0 -- -- 91
2020-03-12 02:00:00 4.6 0 Calma 4 Sur 0 -- -- 89
2020-03-12 01:00:00 5.5 0 Calma 5 Noroeste 0 -- -- 86
2020-03-12 00:00:00 6.5 0 Calma 4 Sudoeste 0 -- -- 83
2020-03-11 23:00:00 7.8 2 Sudoeste 6 Sudoeste 0 -- -- 78
2020-03-11 22:00:00 8.4 0 Calma 5 Sur 0 -- -- 75
2020-03-11 21:00:00 9.9 0 Calma 5 Noroeste 0 -- -- 69
2020-03-11 20:00:00 12.7 0 Calma 6 Noroeste 0 -- -- 59
2020-03-11 19:00:00 17 2 Sudoeste 16 Oeste 0 -- -- 45
2020-03-11 18:00:00 19.5 9 Sudoeste 23 Oeste 0 -- -- 40
2020-03-11 17:00:00 20.3 13 Sudoeste 24 Sur 0 -- -- 36
2020-03-11 16:00:00 20.7 12 Sudoeste 30 Sudoeste 0 -- -- 35
2020-03-11 15:00:00 20.2 10 Sudoeste 26 Oeste 0 -- -- 36
2020-03-11 14:00:00 19 4 Sudeste 9 Norte 0 -- -- 36
2020-03-11 13:00:00 15.9 6 Norte 9 Norte 0 -- -- 46
2020-03-11 12:00:00 12.2 4 Nordeste 4 Nordeste 0 -- -- 57
2020-03-11 11:00:00 8.5 3 Nordeste 4 Nordeste 0 -- -- 69
2020-03-11 10:00:00 5 2 Nordeste 4 Este 0 -- -- 80
2020-03-11 09:00:00 2.2 0 Calma 3 Sudeste 0 -- -- 88
2020-03-11 08:00:00 -1.2 0 Calma 2 Sur 0 -- -- 93
2020-03-11 07:00:00 -1.1 0 Calma 3 Sur 0 -- -- 94
2020-03-11 06:00:00 -1 0 Calma 0 Calma 0 -- -- 93
2020-03-11 05:00:00 -0.4 0 Calma 2 Noroeste 0 -- -- 92
2020-03-11 04:00:00 0.2 0 Calma 3 Norte 0 -- -- 91
2020-03-11 03:00:00 0.8 0 Calma 3 Noroeste 0 -- -- 89
2020-03-11 02:00:00 1.6 0 Calma 3 Sur 0 -- -- 85
2020-03-11 01:00:00 2.4 0 Calma 3 Sur 0 -- -- 82
2020-03-11 00:00:00 3.8 0 Calma 3 Sur 0 -- -- 75
2020-03-10 23:00:00 5.8 0 Calma 6 Sur 0 -- -- 66
2020-03-10 22:00:00 7.5 3 Sur 8 Sur 0 -- -- 59
2020-03-10 21:00:00 8 2 Norte 7 Nordeste 0 -- -- 56
2020-03-10 20:00:00 10.4 2 Noroeste 4 Noroeste 0 -- -- 45
2020-03-10 19:00:00 14.9 2 Sur 12 Sudoeste 0 -- -- 37
2020-03-10 18:00:00 18.9 6 Sudoeste 22 Sudoeste 0 -- -- 27
2020-03-10 17:00:00 19.7 8 Sudoeste 22 Sudoeste 0 -- -- 31
2020-03-10 16:00:00 19.6 5 Sudeste 29 Oeste 0 -- -- 42
2020-03-10 15:00:00 18.8 6 Oeste 17 Sur 0 -- -- 42
2020-03-10 14:00:00 15.1 6 Nordeste 10 Este 0 -- -- 56
2020-03-10 13:00:00 13.3 4 Nordeste 8 Nordeste 0 -- -- 60
2020-03-10 12:00:00 10.4 3 Nordeste 6 Norte 0 -- -- 59
2020-03-10 11:00:00 7.2 3 Nordeste 5 Norte 0 -- -- 67
2020-03-10 10:00:00 4.6 3 Nordeste 5 Norte 0 -- -- 83
2020-03-10 09:00:00 1 0 Calma 3 Sur 0 -- -- 93
2020-03-10 08:00:00 -0.6 0 Calma 2 Sudoeste 0 -- -- 93
2020-03-10 07:00:00 -0.2 0 Calma 2 Sur 0 -- -- 91
2020-03-10 06:00:00 -0.2 3 Sudoeste 4 Sudoeste 0 -- -- 91
2020-03-10 05:00:00 -0.3 0 Calma 2 Sudeste 0 -- -- 90
2020-03-10 04:00:00 -0.2 0 Calma 2 Sudoeste 0 -- -- 88
2020-03-10 03:00:00 0.3 0 Calma 2 Sur 0 -- -- 87
2020-03-10 02:00:00 0.6 0 Calma 3 Sur 0 -- -- 85
2020-03-10 01:00:00 1.5 0 Calma 3 Sur 0 -- -- 82
2020-03-10 00:00:00 2.4 0 Calma 4 Sur 0 -- -- 76